DURO2: Washita River Durwood, OK

                                SHEF ID:       DURO2     Washita River near Dickson, OK
STATION TYPE:
Regulating: Stage = 27.00, Flow = 32534

PRECIP PRECIP(A) STAGE STAGE(2) RIV-FLOW BAT-LOAD
in in ft ft cfs volt
Ccp-Rev Ccp-Rev Ccp-Rev Ccp-Rev Ccp-Rev Ccp-Rev
(America/Chicago)
04/19 00:00 0.00 ---- 10.06 10.04 2189 12.37
04/19 01:00 0.00 ---- 10.06 10.06 2189 12.33
04/19 02:00 0.00 ---- 10.06 10.05 2189 12.31
04/19 03:00 0.00 ---- 10.06 10.06 2189 12.29
04/19 04:00 0.00 ---- 10.06 10.05 2189 12.26
04/19 05:00 0.00 ---- 10.05 10.04 2177 12.23
04/19 06:00 0.00 ---- 10.06 10.04 2189 12.21
04/19 07:00 0.00 ---- 10.05 10.04 2177 12.17
04/19 08:00 0.00 ---- 10.05 10.03 2177 12.19
04/19 09:00 0.00 ---- 10.05 10.04 2177 12.31
04/19 10:00 0.00 ---- 10.05 10.03 2177 12.44
04/19 11:00 0.00 ---- 10.04 10.02 2166 12.54
04/19 12:00 0.00 ---- 10.01 10.00 2131 12.63
04/19 13:00 0.00 ---- 10.00 9.99 2120 12.72
04/19 14:00 0.00 ---- 9.98 9.97 2097 12.79
04/19 15:00 0.00 ---- 9.95 9.94 2063 13.19
04/19 16:00 0.00 ---- 9.93 9.91 2040 13.26
04/19 17:00 0.00 ---- 9.90 9.89 2007 13.00
04/19 18:00 0.00 ---- 9.88 9.87 1985 12.90
04/19 19:00 0.00 ---- 9.86 9.86 1964 12.99
04/19 20:00 0.00 ---- 9.85 9.83 1953 12.84
04/19 21:00 0.00 ---- 9.83 9.81 1931 12.55
04/19 22:00 0.00 ---- 9.80 9.79 1899 12.46
04/19 23:00 0.00 ---- 9.80 9.78 1899 12.42
Data processed at Mon 20Apr2026 04:36 GMT

NOTICE: If you are parsing this page

Please convert to using our Data API. Starting early 2026 we will be migrating to: https://water.usace.army.mil with modern pages rendered in JavaScript. When this migration completes you will no longer be able to scrape this page! CWMSDataAPI (CDA)

Timeseries IDs (TSIDs)

TSIDs used from left to right in the data table
DICK.Precip-Inc.Total.1Hour.1Hour.Ccp-Rev
DICK.Precip-Inc Alt.Total.1Hour.1Hour.Ccp-Rev
DICK.Stage.Inst.1Hour.0.Ccp-Rev
DICK.Flow.Inst.1Hour.0.Ccp-Rev
DICK.Volt-Battery Load.Inst.1Hour.0.Ccp-Rev

                            

All information presented herein is the property of the government of the United States of America and may be revised or deleted at any time without prior notice. Dissemination of this information without the expressed written consent of the Public Affairs Office, Tulsa District U.S. Army Corps of Engineers is strictly prohibited. These data are gathered electronically and, as presented, have NOT undergone any form of quality control. These data are NOT guaranteed to be valid or correct.